createdAt,value
2022-12-25T00:04:47.566Z,9.96
2022-12-25T00:14:47.490Z,9.88
2022-12-25T00:24:47.480Z,9.82
2022-12-25T00:34:47.552Z,9.83
2022-12-25T00:44:47.536Z,9.97
2022-12-25T00:54:47.598Z,10.20
2022-12-25T01:04:47.547Z,10.41
2022-12-25T01:14:47.624Z,10.58
2022-12-25T01:24:47.525Z,10.75
2022-12-25T01:34:53.733Z,10.85
2022-12-25T01:44:49.778Z,10.90
2022-12-25T01:54:50.241Z,10.93
2022-12-25T02:04:50.641Z,10.99
2022-12-25T02:14:50.610Z,11.07
2022-12-25T02:24:50.814Z,11.17
2022-12-25T02:34:50.625Z,11.27
2022-12-25T02:45:22.289Z,11.34
2022-12-25T02:55:41.801Z,11.41
2022-12-25T03:05:59.948Z,11.48
2022-12-25T03:16:20.152Z,11.53
2022-12-25T03:26:39.082Z,11.56
2022-12-25T03:36:38.828Z,11.59
2022-12-25T03:46:57.048Z,11.61
2022-12-25T03:57:15.194Z,11.61
2022-12-25T04:07:34.081Z,11.63
2022-12-25T04:17:51.897Z,11.66
2022-12-25T04:28:10.177Z,11.70
2022-12-25T04:38:09.802Z,11.73
2022-12-25T04:48:09.833Z,11.72
2022-12-25T04:58:09.909Z,11.69
2022-12-25T05:08:11.042Z,11.65
2022-12-25T05:18:10.973Z,11.61
2022-12-25T05:28:10.895Z,11.60
2022-12-25T05:38:10.919Z,11.60
2022-12-25T05:48:11.031Z,11.54
2022-12-25T05:58:10.972Z,11.37
2022-12-25T06:08:10.929Z,11.16
2022-12-25T06:18:11.033Z,11.08
2022-12-25T06:28:10.984Z,11.07
2022-12-25T06:38:13.999Z,11.05
2022-12-25T06:48:14.211Z,11.03
2022-12-25T06:58:13.944Z,11.03
2022-12-25T07:08:14.120Z,11.06
2022-12-25T07:18:14.120Z,11.11
2022-12-25T07:28:14.077Z,11.17
2022-12-25T07:38:14.490Z,11.22
2022-12-25T07:48:16.889Z,11.23
2022-12-25T07:58:21.445Z,11.20
2022-12-25T08:08:19.147Z,11.19
2022-12-25T08:18:21.267Z,11.27
2022-12-25T08:28:21.133Z,11.38
2022-12-25T08:38:21.164Z,11.47
2022-12-25T08:48:21.245Z,11.57
2022-12-25T08:58:21.136Z,11.69
2022-12-25T09:08:21.352Z,11.79
2022-12-25T09:18:21.240Z,11.85
2022-12-25T09:28:21.186Z,11.79
2022-12-25T09:38:21.255Z,11.64
2022-12-25T09:48:21.226Z,11.52
2022-12-25T09:58:21.187Z,11.45
2022-12-25T10:08:21.283Z,11.41
2022-12-25T10:18:21.257Z,11.41
2022-12-25T10:28:21.253Z,11.47
2022-12-25T10:38:21.276Z,11.53
2022-12-25T10:48:21.314Z,11.58
2022-12-25T10:58:21.269Z,11.68
2022-12-25T11:08:21.510Z,11.80
2022-12-25T11:18:21.352Z,11.85
2022-12-25T11:28:21.344Z,11.84
2022-12-25T11:38:21.427Z,11.92
2022-12-25T11:48:21.416Z,12.03
2022-12-25T11:58:21.366Z,12.03
2022-12-25T12:08:21.423Z,11.93
2022-12-25T12:18:21.426Z,11.85
2022-12-25T12:28:21.415Z,11.81
2022-12-25T12:38:21.419Z,11.78
2022-12-25T12:48:21.578Z,11.74
2022-12-25T12:58:21.492Z,11.74
2022-12-25T13:08:21.462Z,11.81
2022-12-25T13:18:21.496Z,11.92
2022-12-25T13:28:21.498Z,12.01
2022-12-25T13:38:21.482Z,12.06
2022-12-25T13:48:23.040Z,12.15
2022-12-25T13:58:23.483Z,12.25
2022-12-25T14:08:23.800Z,12.33
2022-12-25T14:18:23.868Z,12.38
2022-12-25T14:28:24.207Z,12.41
2022-12-25T14:38:24.620Z,12.40
2022-12-25T14:48:25.669Z,12.39
2022-12-25T14:58:25.650Z,12.38
2022-12-25T15:08:25.719Z,12.38
2022-12-25T15:18:25.668Z,12.39
2022-12-25T15:28:25.630Z,12.40
2022-12-25T15:38:25.631Z,12.41
2022-12-25T15:48:28.901Z,12.43
2022-12-25T15:58:28.771Z,12.48
2022-12-25T16:08:28.754Z,12.54
2022-12-25T16:18:29.842Z,12.62
2022-12-25T16:28:29.726Z,12.69
2022-12-25T16:38:31.188Z,12.77
2022-12-25T16:48:31.778Z,12.85
2022-12-25T16:58:31.729Z,12.94
2022-12-25T17:08:31.733Z,13.01
2022-12-25T17:18:31.789Z,13.05
2022-12-25T17:28:31.726Z,13.05
2022-12-25T17:38:32.105Z,13.04
2022-12-25T17:48:31.814Z,13.03
2022-12-25T17:58:31.791Z,13.03
2022-12-25T18:08:38.700Z,13.03
2022-12-25T18:18:34.638Z,13.02
2022-12-25T18:28:34.869Z,13.03
2022-12-25T18:38:35.191Z,13.05
2022-12-25T18:48:34.870Z,13.08
2022-12-25T18:58:35.607Z,13.11
2022-12-25T19:08:35.945Z,13.14
2022-12-25T19:18:35.893Z,13.18
2022-12-25T19:28:36.864Z,13.22
2022-12-25T19:38:36.982Z,13.25
2022-12-25T19:48:37.233Z,13.26
2022-12-25T19:58:37.203Z,13.26
2022-12-25T20:08:37.805Z,13.25
2022-12-25T20:18:38.127Z,13.23
2022-12-25T20:28:38.055Z,13.23
2022-12-25T20:38:38.235Z,13.25
2022-12-25T20:48:38.091Z,13.30
2022-12-25T20:58:38.056Z,13.34
2022-12-25T21:08:38.235Z,13.38
2022-12-25T21:18:38.200Z,13.42
2022-12-25T21:28:38.283Z,13.45
2022-12-25T21:38:38.135Z,13.48
2022-12-25T21:48:38.098Z,13.50
2022-12-25T21:58:38.229Z,13.52
2022-12-25T22:08:38.163Z,13.54
2022-12-25T22:18:56.423Z,13.51
2022-12-25T22:28:56.277Z,13.41
2022-12-25T22:38:56.174Z,13.29
2022-12-25T22:48:56.248Z,13.16
2022-12-25T22:58:56.269Z,13.04
2022-12-25T23:08:56.587Z,12.94
2022-12-25T23:19:14.544Z,12.87
2022-12-25T23:29:42.869Z,12.82
2022-12-25T23:39:43.340Z,12.80
2022-12-25T23:49:43.618Z,12.78
2022-12-25T23:59:43.402Z,12.76
